Time;durP1;ratioP1;P1;durP2;ratioP2;P2;SDS_P1;SDS_P2;PMS_P1;PMS_P2;Temp;Humidity;BMP_temperature;BMP_pressure;BME280_temperature;BME280_humidity;BME280_pressure;Samples;Min_cycle;Max_cycle;Signal;HPM_P1;HPM_P2
2022/09/05 00:04:14;;;;;;;4.35;3.95;;;;;;;22.07;41.81;100870.44;10055029;29;20223;-83
2022/09/05 00:09:36;;;;;;;4.40;3.70;;;;;;;22.00;41.24;100872.41;10046799;29;20258;-81
2022/09/05 00:15:17;;;;;;;5.00;4.32;;;;;;;21.78;42.09;100878.00;10064236;29;20199;-81
2022/09/05 00:20:49;;;;;;;5.57;4.13;;;;;;;21.97;41.23;100876.94;10048994;29;20269;-81
2022/09/05 00:26:31;;;;;;;4.75;4.28;;;;;;;21.99;41.28;100874.47;10059339;29;20263;-81
2022/09/05 00:32:07;;;;;;;3.95;3.65;;;;;;;22.31;40.30;100871.78;10063390;29;20226;-81
2022/09/05 00:37:45;;;;;;;4.80;3.78;;;;;;;22.34;40.16;100870.97;10057197;29;20206;-81
2022/09/05 00:43:12;;;;;;;4.90;3.67;;;;;;;22.51;39.53;100864.44;10034092;29;20282;-80
2022/09/05 00:48:56;;;;;;;5.28;3.63;;;;;;;22.17;39.83;100865.97;10041228;29;20565;-81
2022/09/05 00:54:40;;;;;;;5.82;3.80;;;;;;;21.88;40.27;100869.84;10033564;29;20198;-81
2022/09/05 01:00:11;;;;;;;3.83;3.47;;;;;;;22.34;39.28;100868.09;10044723;29;20235;-82
2022/09/05 01:05:55;;;;;;;5.10;3.45;;;;;;;22.17;39.45;100871.69;10060710;29;20231;-81
2022/09/05 01:11:41;;;;;;;3.35;3.15;;;;;;;22.38;39.11;100865.25;10056463;29;20226;-82
2022/09/05 01:17:11;;;;;;;2.97;2.78;;;;;;;22.60;38.93;100860.41;10061421;29;20202;-81
2022/09/05 01:22:55;;;;;;;3.67;3.38;;;;;;;22.39;39.27;100866.88;10042279;29;20259;-81
2022/09/05 01:28:32;;;;;;;3.30;3.10;;;;;;;22.67;38.50;100855.50;10034449;29;20206;-82
2022/09/05 01:34:01;;;;;;;4.07;3.53;;;;;;;22.62;38.79;100866.59;10059446;29;20210;-81
2022/09/05 01:40:01;;;;;;;4.50;3.45;;;;;;;22.32;39.34;100867.69;10061349;29;20780;-81
2022/09/05 01:45:46;;;;;;;3.50;3.20;;;;;;;22.23;39.79;100861.50;10041705;29;20214;-81
2022/09/05 01:51:33;;;;;;;4.18;3.88;;;;;;;21.71;40.73;100860.75;10053359;29;20250;-81
2022/09/05 01:57:18;;;;;;;6.10;4.15;;;;;;;22.17;39.47;100857.34;10047698;29;20270;-81
2022/09/05 02:02:46;;;;;;;4.20;3.90;;;;;;;22.31;39.10;100853.72;10040817;29;20266;-81
2022/09/05 02:08:37;;;;;;;4.55;4.15;;;;;;;20.96;42.08;100865.00;10017611;29;20226;-80
2022/09/05 02:14:07;;;;;;;7.20;4.05;;;;;;;21.54;40.91;100861.44;10058595;29;20194;-80
2022/09/05 02:19:30;;;;;;;4.78;3.28;;;;;;;20.88;42.24;100869.03;10029965;29;20272;-81
2022/09/05 02:25:03;;;;;;;3.58;3.28;;;;;;;20.64;43.21;100866.69;10040413;29;20202;-81
2022/09/05 02:30:29;;;;;;;5.47;4.13;;;;;;;20.62;43.27;100871.97;10046283;29;20574;-80
2022/09/05 02:35:59;;;;;;;10.27;7.57;;;;;;;20.45;43.62;100871.38;10057340;29;20262;-80
2022/09/05 02:41:33;;;;;;;4.88;4.32;;;;;;;20.61;43.27;100867.47;10056576;29;20628;-81
2022/09/05 02:47:06;;;;;;;5.85;3.88;;;;;;;20.78;42.77;100866.84;10056790;29;20491;-80
2022/09/05 02:52:31;;;;;;;4.40;3.28;;;;;;;20.39;42.95;100861.50;10059425;29;20230;-80
2022/09/05 02:58:32;;;;;;;3.50;3.20;;;;;;;20.99;42.21;100858.50;10045090;29;20250;-80
2022/09/05 03:04:08;;;;;;;6.75;3.25;;;;;;;20.83;42.30;100849.31;10066734;29;20199;-80
2022/09/05 03:09:49;;;;;;;5.15;3.30;;;;;;;20.94;42.00;100861.72;10066536;29;20628;-81
2022/09/05 03:15:14;;;;;;;4.00;2.85;;;;;;;20.94;41.64;100863.78;10064182;29;20199;-81
2022/09/05 03:21:15;;;;;;;4.82;2.53;;;;;;;21.10;41.11;100856.53;10054131;29;20271;-81
2022/09/05 03:27:06;;;;;;;3.20;2.97;;;;;;;20.73;42.41;100855.72;10054435;29;20266;-81
2022/09/05 03:32:53;;;;;;;3.13;2.92;;;;;;;21.69;40.13;100848.84;10039442;29;20304;-81
2022/09/05 03:38:35;;;;;;;4.30;3.63;;;;;;;21.64;40.79;100849.22;10025933;29;20199;-81
2022/09/05 03:44:18;;;;;;;3.97;3.17;;;;;;;21.71;40.32;100855.03;10050464;29;20228;-80
2022/09/05 03:50:08;;;;;;;4.97;3.45;;;;;;;21.52;40.74;100858.16;10033439;29;20692;-81
2022/09/05 03:55:51;;;;;;;4.13;3.47;;;;;;;21.56;40.85;100876.22;10053994;29;20247;-80
2022/09/05 04:01:34;;;;;;;5.65;4.07;;;;;;;21.59;41.06;100866.81;10062417;29;20206;-80
2022/09/05 04:06:59;;;;;;;11.40;4.15;;;;;;;21.34;41.31;100868.66;10044014;29;20663;-80
2022/09/05 04:12:28;;;;;;;5.95;4.30;;;;;;;20.79;43.00;100880.00;10047976;29;20552;-81
2022/09/05 04:17:58;;;;;;;10.63;4.35;;;;;;;21.39;41.41;100874.03;10031765;29;20206;-80
2022/09/05 04:23:34;;;;;;;6.55;4.18;;;;;;;20.89;42.27;100879.28;10048344;29;20203;-81
2022/09/05 04:29:19;;;;;;;6.07;3.72;;;;;;;21.10;41.94;100870.06;10033427;29;20223;-81
2022/09/05 04:35:02;;;;;;;4.20;3.80;;;;;;;20.68;42.68;100873.28;10040687;29;20230;-80
2022/09/05 04:40:43;;;;;;;5.10;3.53;;;;;;;21.24;41.18;100866.50;10041402;29;20603;-81
2022/09/05 04:46:24;;;;;;;4.68;3.03;;;;;;;20.82;42.07;100875.53;10035670;29;20194;-81
2022/09/05 04:52:09;;;;;;;6.00;3.08;;;;;;;20.61;42.47;100876.06;10044477;29;20218;-81
2022/09/05 04:57:54;;;;;;;6.38;3.80;;;;;;;20.31;43.21;100882.66;10054961;29;20214;-81
2022/09/05 05:03:18;;;;;;;3.93;3.47;;;;;;;20.56;42.84;100887.88;10028720;29;20672;-80
2022/09/05 05:08:43;;;;;;;3.90;3.50;;;;;;;20.63;42.78;100893.69;10041535;29;20699;-81
2022/09/05 05:14:10;;;;;;;5.43;3.55;;;;;;;21.24;41.39;100898.03;10037482;29;20290;-81
2022/09/05 05:19:39;;;;;;;6.70;4.30;;;;;;;21.32;41.56;100902.63;10035691;29;20504;-81
2022/09/05 05:25:02;;;;;;;9.35;4.53;;;;;;;20.70;42.91;100899.47;10027633;29;20267;-81
2022/09/05 05:30:27;;;;;;;6.40;3.80;;;;;;;21.26;41.58;100904.19;10035722;29;20539;-80
2022/09/05 05:35:50;;;;;;;7.88;3.70;;;;;;;21.60;40.69;100905.75;10040740;29;20225;-81
2022/09/05 05:41:20;;;;;;;6.55;3.80;;;;;;;21.30;41.75;100913.66;10035822;29;20207;-80
2022/09/05 05:46:46;;;;;;;5.88;3.50;;;;;;;21.48;41.40;100906.06;10036541;29;20228;-80
2022/09/05 05:52:27;;;;;;;6.60;3.75;;;;;;;20.61;41.99;100905.53;10048339;29;20210;-80
2022/09/05 05:57:57;;;;;;;7.53;2.90;;;;;;;20.90;41.12;100909.56;10061870;29;20195;-80
2022/09/05 06:03:45;;;;;;;11.30;3.63;;;;;;;22.23;38.51;100904.56;10061592;29;20215;-80
2022/09/05 06:09:15;;;;;;;10.15;3.55;;;;;;;22.57;38.58;100907.19;10035371;29;20226;-81
2022/09/05 06:14:47;;;;;;;9.90;3.00;;;;;;;22.65;37.92;100898.19;10048639;29;20191;-82
2022/09/05 06:20:15;;;;;;;7.28;2.78;;;;;;;22.52;38.27;100900.56;10069421;29;20259;-82
2022/09/05 06:26:02;;;;;;;7.22;2.90;;;;;;;22.98;37.96;100904.84;10068875;29;20270;-81
2022/09/05 06:31:42;;;;;;;5.97;2.47;;;;;;;22.92;38.09;100907.28;10052242;29;20234;-81
2022/09/05 06:37:34;;;;;;;3.53;2.97;;;;;;;22.64;38.60;100915.84;10054911;29;20194;-81
2022/09/05 06:43:23;;;;;;;15.82;2.95;;;;;;;22.92;38.72;100918.78;10055065;29;20246;-81
2022/09/05 06:48:55;;;;;;;18.55;4.55;;;;;;;23.35;38.48;100913.16;10038544;29;20671;-81
2022/09/05 06:55:02;;;;;;;8.02;3.60;;;;;;;23.16;39.16;100923.78;10054723;29;20286;-81
2022/09/05 07:00:32;;;;;;;5.38;2.90;;;;;;;22.69;39.63;100926.94;10040209;29;20207;-81
2022/09/05 07:06:03;;;;;;;3.13;2.08;;;;;;;23.71;37.16;100914.81;10048369;29;20236;-81
2022/09/05 07:11:59;;;;;;;4.03;1.98;;;;;;;23.64;37.12;100923.47;10039733;29;20247;-81
2022/09/05 07:17:56;;;;;;;4.72;1.85;;;;;;;23.30;37.25;100922.16;10045253;29;20684;-81
2022/09/05 07:23:43;;;;;;;2.05;1.85;;;;;;;24.39;35.49;100924.16;10042954;29;20218;-81
2022/09/05 07:29:07;;;;;;;3.58;1.65;;;;;;;24.59;34.51;100931.06;10035249;29;20591;-81
2022/09/05 07:34:31;;;;;;;7.15;2.00;;;;;;;24.18;36.22;100935.72;10050362;29;20543;-81
2022/09/05 07:39:58;;;;;;;4.97;1.67;;;;;;;24.75;34.53;100933.50;10018667;29;20261;-81
2022/09/05 07:45:23;;;;;;;7.32;1.90;;;;;;;24.40;34.26;100931.56;10049991;29;20211;-81
2022/09/05 07:50:49;;;;;;;3.42;1.30;;;;;;;25.32;33.04;100936.91;10045014;29;20709;-81
2022/09/05 07:56:13;;;;;;;2.90;1.38;;;;;;;24.59;34.06;100936.00;10063408;29;20203;-81
2022/09/05 08:01:37;;;;;;;5.05;1.73;;;;;;;25.00;32.68;100936.25;10041966;29;20275;-81
2022/09/05 08:07:05;;;;;;;8.65;1.80;;;;;;;25.63;31.92;100942.81;10045991;29;20238;-80
2022/09/05 08:12:35;;;;;;;3.35;1.27;;;;;;;25.17;32.99;100931.63;10049016;29;20222;-81
2022/09/05 08:18:17;;;;;;;3.28;1.50;;;;;;;25.71;31.21;100927.09;10040026;29;20283;-81
2022/09/05 08:24:08;;;;;;;2.67;1.30;;;;;;;25.04;31.94;100922.63;10045192;29;20671;-81
2022/09/05 08:29:34;;;;;;;3.83;1.17;;;;;;;26.80;29.72;100924.28;10046897;29;20202;-81
2022/09/05 08:35:23;;;;;;;2.03;1.33;;;;;;;25.99;30.30;100923.97;10026842;29;20258;-82
2022/09/05 08:41:01;;;;;;;1.50;1.40;;;;;;;26.98;29.84;100919.06;10036505;29;20204;-82
2022/09/05 08:46:27;;;;;;;4.75;1.30;;;;;;;27.56;28.55;100911.16;10045643;29;20206;-81
2022/09/05 08:52:26;;;;;;;2.80;1.58;;;;;;;27.05;28.75;100918.16;10049893;29;20246;-82
2022/09/05 08:58:03;;;;;;;1.58;1.05;;;;;;;26.54;28.91;100916.31;10017917;29;20206;-82
2022/09/05 09:03:38;;;;;;;3.78;1.00;;;;;;;27.05;28.54;100912.38;10053346;29;20190;-82
2022/09/05 09:09:11;;;;;;;9.15;1.70;;;;;;;26.74;28.78;100903.69;10044999;29;20230;-82
2022/09/05 09:14:39;;;;;;;5.03;1.17;;;;;;;27.00;28.07;100898.38;10058180;29;20259;-82
2022/09/05 09:20:08;;;;;;;5.78;1.50;;;;;;;27.20;27.56;100896.41;10044201;29;20207;-82
2022/09/05 09:25:42;;;;;;;4.68;1.40;;;;;;;27.78;26.45;100891.34;10061018;29;20259;-82
2022/09/05 09:31:10;;;;;;;3.58;1.45;;;;;;;26.91;27.44;100889.44;10044471;29;20219;-82
2022/09/05 09:37:11;;;;;;;1.33;1.23;;;;;;;28.53;25.38;100872.47;10036307;29;20469;-82
2022/09/05 09:42:39;;;;;;;1.92;1.10;;;;;;;26.83;26.84;100873.41;10048879;29;20219;-82
2022/09/05 09:48:33;;;;;;;2.15;1.13;;;;;;;27.14;25.65;100863.44;10046728;29;20203;-82
2022/09/05 09:54:15;;;;;;;1.25;1.10;;;;;;;27.90;24.00;100864.63;10056005;29;20230;-82
2022/09/05 09:59:43;;;;;;;2.28;1.25;;;;;;;28.35;23.81;100867.06;10061950;29;20488;-83
2022/09/05 10:05:31;;;;;;;1.10;0.82;;;;;;;26.31;26.83;100877.38;10062714;29;20191;-82
2022/09/05 10:11:11;;;;;;;1.90;1.15;;;;;;;27.88;26.06;100864.25;10055499;29;20647;-83
2022/09/05 10:16:52;;;;;;;3.03;1.00;;;;;;;27.64;25.69;100862.59;10044638;29;20660;-83
2022/09/05 10:22:48;;;;;;;1.40;1.08;;;;;;;27.47;26.00;100853.78;10057945;29;20666;-82
2022/09/05 10:28:42;;;;;;;6.03;1.20;;;;;;;27.03;26.42;100857.84;10021758;29;20715;-82
2022/09/05 10:34:21;;;;;;;2.22;1.00;;;;;;;28.10;25.55;100845.16;10018734;29;20250;-82
2022/09/05 10:39:46;;;;;;;1.80;1.20;;;;;;;27.82;25.40;100847.84;10053645;29;20222;-82
2022/09/05 10:45:15;;;;;;;3.28;1.17;;;;;;;28.10;25.33;100845.16;10028417;29;20222;-82
2022/09/05 10:50:43;;;;;;;1.65;0.68;;;;;;;27.64;27.56;100846.06;10030841;29;20203;-82
2022/09/05 10:56:12;;;;;;;1.98;0.90;;;;;;;28.05;24.84;100831.22;10055235;29;20255;-82
2022/09/05 11:01:51;;;;;;;3.58;0.98;;;;;;;28.67;25.00;100826.56;10008509;29;20195;-82
2022/09/05 11:07:37;;;;;;;0.95;0.77;;;;;;;28.60;23.38;100820.94;10032194;29;20327;-82
2022/09/05 11:13:13;;;;;;;1.90;0.90;;;;;;;28.25;23.78;100815.91;10042436;29;20640;-82
2022/09/05 11:18:55;;;;;;;1.83;0.90;;;;;;;28.18;23.71;100811.06;10042994;29;20844;-82
2022/09/05 11:24:34;;;;;;;1.08;1.00;;;;;;;27.98;24.26;100813.97;10044159;29;20249;-82
2022/09/05 11:30:09;;;;;;;1.52;1.17;;;;;;;27.27;25.47;100805.78;10046911;29;20271;-82
2022/09/05 11:35:47;;;;;;;2.15;1.00;;;;;;;28.73;25.18;100795.78;10064354;29;20234;-82
2022/09/05 11:41:44;;;;;;;4.65;0.65;;;;;;;28.90;24.15;100787.09;10019818;29;20203;-82
2022/09/05 11:47:18;;;;;;;1.60;0.93;;;;;;;29.74;23.59;100789.06;10057613;29;20210;-82
2022/09/05 11:53:02;;;;;;;2.97;1.08;;;;;;;27.42;24.79;100790.63;10038416;29;20222;-82
2022/09/05 11:58:32;;;;;;;2.20;0.98;;;;;;;28.22;25.06;100787.81;10059480;29;20368;-82
2022/09/05 12:04:26;;;;;;;0.73;0.70;;;;;;;30.24;22.30;100783.44;10040827;29;20546;-82
2022/09/05 12:10:02;;;;;;;1.85;0.95;;;;;;;28.97;23.03;100786.94;10001108;29;20267;-82
2022/09/05 12:15:36;;;;;;;0.88;0.88;;;;;;;29.22;23.15;100784.22;10021323;29;20250;-82
2022/09/05 12:21:01;;;;;;;1.30;1.20;;;;;;;28.15;24.27;100788.78;10019955;29;20598;-82
2022/09/05 12:26:32;;;;;;;1.88;0.85;;;;;;;28.38;23.66;100784.97;10021803;29;20262;-82
2022/09/05 12:31:57;;;;;;;3.10;1.10;;;;;;;29.50;23.65;100768.94;10014292;29;20856;-82
2022/09/05 12:37:29;;;;;;;1.17;0.82;;;;;;;28.04;24.43;100777.41;10021996;29;20215;-82
2022/09/05 12:42:56;;;;;;;1.65;1.13;;;;;;;28.02;24.27;100774.13;10024262;29;20497;-82
2022/09/05 12:48:30;;;;;;;2.17;1.10;;;;;;;28.96;23.72;100779.50;10006248;29;20207;-82
2022/09/05 12:53:56;;;;;;;3.90;0.98;;;;;;;29.36;22.62;100768.53;10017134;29;20597;-82
2022/09/05 12:59:23;;;;;;;1.48;0.90;;;;;;;29.69;22.06;100766.38;10002628;29;20689;-82
2022/09/05 13:04:49;;;;;;;1.80;0.70;;;;;;;27.65;23.73;100765.78;10008728;29;20203;-82
2022/09/05 13:10:22;;;;;;;1.60;1.00;;;;;;;29.41;21.59;100765.84;10020540;29;20238;-82
2022/09/05 13:15:47;;;;;;;2.50;1.00;;;;;;;29.37;21.75;100765.16;9989448;29;20234;-82
2022/09/05 13:21:15;;;;;;;2.67;0.82;;;;;;;30.07;22.36;100760.69;10014758;29;20203;-82
2022/09/05 13:26:45;;;;;;;1.15;1.00;;;;;;;29.23;22.88;100765.53;9999910;29;20203;-81
2022/09/05 13:32:14;;;;;;;5.35;1.02;;;;;;;29.20;21.80;100760.63;10027820;29;20688;-83
2022/09/05 13:37:57;;;;;;;3.47;1.05;;;;;;;28.84;21.79;100749.94;10024358;29;20620;-82
2022/09/05 13:43:25;;;;;;;1.08;0.75;;;;;;;29.34;21.65;100733.31;10032650;29;20283;-82
2022/09/05 13:49:18;;;;;;;0.80;0.80;;;;;;;30.05;22.08;100716.72;10005511;29;20227;-82
2022/09/05 13:55:11;;;;;;;2.25;0.85;;;;;;;29.73;21.74;100717.69;10014312;29;20310;-83
2022/09/05 14:01:08;;;;;;;3.28;0.82;;;;;;;29.01;21.81;100715.91;10013200;29;20521;-82
2022/09/05 14:06:47;;;;;;;0.52;0.52;;;;;;;29.19;21.53;100701.75;10006989;29;20270;-82
2022/09/05 14:12:36;;;;;;;1.35;0.73;;;;;;;28.41;22.33;100703.72;10057598;29;20298;-82
2022/09/05 14:18:27;;;;;;;2.92;1.10;;;;;;;29.74;21.42;100704.81;10041701;29;20266;-82
2022/09/05 14:23:56;;;;;;;2.13;1.00;;;;;;;28.50;21.86;100694.38;10035319;29;20234;-81
2022/09/05 14:29:43;;;;;;;1.85;0.70;;;;;;;29.17;21.11;100697.69;10024516;29;20274;-81
2022/09/05 14:35:23;;;;;;;2.35;0.70;;;;;;;29.40;20.64;100682.91;10045283;29;20696;-82
2022/09/05 14:41:23;;;;;;;0.77;0.70;;;;;;;29.71;21.19;100685.38;10062855;29;20202;-80
2022/09/05 14:47:25;;;;;;;1.25;1.00;;;;;;;29.19;21.50;100671.91;10047372;29;20206;-81
2022/09/05 14:53:05;;;;;;;2.90;0.95;;;;;;;28.35;22.55;100675.72;10065405;29;20691;-81
2022/09/05 14:58:29;;;;;;;0.93;0.93;;;;;;;28.26;22.04;100673.44;10037507;29;20207;-81
2022/09/05 15:03:51;;;;;;;1.30;0.98;;;;;;;29.14;21.70;100675.34;10048232;29;20270;-81
2022/09/05 15:09:15;;;;;;;0.77;0.75;;;;;;;29.26;21.45;100665.94;10047202;29;20242;-81
2022/09/05 15:14:40;;;;;;;1.35;0.85;;;;;;;29.82;21.32;100657.63;10036549;29;20303;-81
2022/09/05 15:20:07;;;;;;;1.40;0.65;;;;;;;29.05;21.45;100667.28;10048750;29;20211;-81
2022/09/05 15:25:30;;;;;;;0.60;0.60;;;;;;;29.22;21.44;100658.59;10048448;29;20191;-81
2022/09/05 15:31:01;;;;;;;2.05;0.80;;;;;;;29.22;22.17;100655.69;10048022;29;20266;-82
2022/09/05 15:36:32;;;;;;;1.45;0.80;;;;;;;29.24;21.94;100662.66;10046847;29;20863;-81
2022/09/05 15:42:10;;;;;;;1.55;0.88;;;;;;;29.31;22.20;100650.84;10048970;29;20262;-82
2022/09/05 15:47:33;;;;;;;1.70;0.88;;;;;;;29.55;21.92;100645.56;10047123;29;20267;-82
2022/09/05 15:52:56;;;;;;;2.40;0.85;;;;;;;29.16;22.58;100643.75;10063968;29;20777;-82
2022/09/05 15:58:18;;;;;;;1.42;0.90;;;;;;;29.07;23.58;100646.50;10042320;29;20266;-84
2022/09/05 16:03:42;;;;;;;2.50;0.80;;;;;;;28.73;23.19;100641.22;10020756;29;20282;-82
2022/09/05 16:09:21;;;;;;;2.65;1.38;;;;;;;29.19;23.51;100639.97;10027954;29;20531;-80
2022/09/05 16:14:50;;;;;;;3.58;1.00;;;;;;;29.34;23.83;100637.50;10045304;29;20234;-83
2022/09/05 16:20:16;;;;;;;2.05;1.27;;;;;;;29.49;24.25;100625.00;10046859;29;20207;-81
2022/09/05 16:25:46;;;;;;;3.88;2.22;;;;;;;28.56;25.24;100622.16;10029756;29;20250;-82
2022/09/05 16:31:13;;;;;;;5.85;1.38;;;;;;;28.28;25.74;100617.91;10026815;29;20275;-82
2022/09/05 16:36:47;;;;;;;5.97;1.73;;;;;;;28.56;25.39;100616.38;10061016;29;20258;-84
2022/09/05 16:42:54;;;;;;;3.40;0.98;;;;;;;29.77;21.84;100608.00;10046162;29;20195;-82
2022/09/05 16:48:44;;;;;;;3.55;1.50;;;;;;;29.54;23.74;100603.25;10057287;29;20202;-82
2022/09/05 16:54:27;;;;;;;1.45;1.10;;;;;;;28.74;24.47;100605.94;10050383;29;20349;-81
2022/09/05 16:59:50;;;;;;;2.13;1.42;;;;;;;28.58;25.81;100603.06;10041578;29;20251;-82
2022/09/05 17:05:27;;;;;;;5.05;1.75;;;;;;;28.76;24.49;100597.59;10023748;29;20254;-81
2022/09/05 17:11:02;;;;;;;2.90;1.10;;;;;;;29.62;23.45;100584.38;10017364;29;20207;-82
2022/09/05 17:16:33;;;;;;;3.67;1.67;;;;;;;29.71;23.55;100580.78;10032582;29;20315;-81
2022/09/05 17:22:04;;;;;;;3.38;1.40;;;;;;;29.31;24.08;100578.25;10041373;29;20521;-82
2022/09/05 17:27:28;;;;;;;2.08;1.00;;;;;;;28.89;24.88;100577.34;10050064;29;20551;-82
2022/09/05 17:32:50;;;;;;;1.65;1.02;;;;;;;28.69;25.09;100574.56;10016505;29;20226;-81
2022/09/05 17:38:22;;;;;;;2.08;1.20;;;;;;;28.89;24.16;100570.72;10007592;29;20282;-80
2022/09/05 17:43:49;;;;;;;3.17;1.30;;;;;;;28.78;24.99;100577.66;10040414;29;20239;-80
2022/09/05 17:49:49;;;;;;;1.77;1.50;;;;;;;28.45;26.06;100576.06;10040255;29;20259;-80
2022/09/05 17:55:12;;;;;;;4.65;2.03;;;;;;;28.30;26.36;100580.59;10021396;29;20283;-81
2022/09/05 18:00:44;;;;;;;4.65;1.80;;;;;;;28.28;26.53;100575.25;10035767;29;20238;-80
2022/09/05 18:06:17;;;;;;;6.65;2.53;;;;;;;28.22;27.31;100570.41;10037986;29;20290;-80
2022/09/05 18:11:41;;;;;;;4.53;2.30;;;;;;;28.13;28.04;100577.66;10041521;29;20269;-79
2022/09/05 18:17:40;;;;;;;4.55;2.20;;;;;;;28.21;27.36;100583.28;10033715;29;20241;-80
2022/09/05 18:23:17;;;;;;;4.65;2.00;;;;;;;27.96;29.02;100578.91;10044400;29;20263;-82
2022/09/05 18:29:03;;;;;;;5.10;2.88;;;;;;;27.53;30.29;100584.03;10059453;29;20207;-81
2022/09/05 18:34:31;;;;;;;6.93;2.80;;;;;;;27.58;29.72;100583.47;10041161;29;20326;-82
2022/09/05 18:40:08;;;;;;;9.43;2.85;;;;;;;27.52;30.57;100585.28;10051656;29;20289;-79
2022/09/05 18:45:31;;;;;;;7.05;3.08;;;;;;;27.12;31.06;100593.94;10046681;29;20203;-80
2022/09/05 18:50:54;;;;;;;7.32;3.15;;;;;;;27.14;29.97;100582.75;10029780;29;20350;-79
2022/09/05 18:56:44;;;;;;;4.85;2.60;;;;;;;27.08;30.74;100581.63;10056052;29;20310;-80
2022/09/05 19:02:14;;;;;;;6.82;3.40;;;;;;;27.10;30.62;100591.50;10045560;29;20341;-80
2022/09/05 19:07:43;;;;;;;9.35;4.07;;;;;;;26.99;30.77;100595.88;10039744;29;20258;-81
2022/09/05 19:13:12;;;;;;;4.68;2.60;;;;;;;26.55;31.48;100592.09;10040427;29;20254;-81
2022/09/05 19:18:34;;;;;;;10.05;4.30;;;;;;;26.74;30.97;100588.47;10030598;29;20242;-82
2022/09/05 19:24:01;;;;;;;6.32;2.53;;;;;;;26.58;30.51;100597.00;10055649;29;20202;-81
2022/09/05 19:29:24;;;;;;;5.80;3.40;;;;;;;26.81;30.92;100595.38;10038329;29;20207;-81
2022/09/05 19:34:46;;;;;;;4.72;3.25;;;;;;;26.49;32.05;100581.50;10037703;29;20325;-82
2022/09/05 19:40:11;;;;;;;10.77;4.00;;;;;;;26.27;31.65;100583.94;10040818;29;20307;-82
2022/09/05 19:45:33;;;;;;;4.93;3.30;;;;;;;25.32;33.78;100575.41;10026343;29;20303;-82
2022/09/05 19:51:06;;;;;;;5.30;3.20;;;;;;;25.25;33.77;100582.06;10021405;29;20616;-82
2022/09/05 19:56:32;;;;;;;5.75;4.07;;;;;;;25.93;32.44;100578.25;10026192;29;20724;-82
2022/09/05 20:01:55;;;;;;;6.15;3.08;;;;;;;26.18;32.57;100580.75;10049803;29;20210;-82
2022/09/05 20:07:20;;;;;;;5.60;3.40;;;;;;;25.84;32.65;100572.22;10037852;29;20254;-82
2022/09/05 20:12:42;;;;;;;6.40;3.53;;;;;;;25.54;33.44;100565.19;10041458;29;20309;-82
2022/09/05 20:18:22;;;;;;;6.28;2.88;;;;;;;25.27;33.76;100562.25;10050094;29;20256;-81
2022/09/05 20:23:48;;;;;;;4.05;2.88;;;;;;;25.73;33.23;100552.16;10055986;29;20270;-82
2022/09/05 20:29:11;;;;;;;5.97;3.08;;;;;;;25.42;33.39;100550.53;10051367;29;20234;-82
2022/09/05 20:34:35;;;;;;;4.00;2.60;;;;;;;24.99;34.43;100562.56;10039266;29;20258;-82
2022/09/05 20:39:58;;;;;;;5.78;2.70;;;;;;;25.13;34.00;100556.63;10039625;29;20203;-81
2022/09/05 20:45:41;;;;;;;8.68;3.15;;;;;;;24.88;34.86;100551.16;10026644;29;20297;-81
2022/09/05 20:51:08;;;;;;;4.22;2.78;;;;;;;24.93;34.80;100552.78;10042294;29;20271;-81
2022/09/05 20:56:31;;;;;;;4.45;2.50;;;;;;;24.83;34.46;100547.94;10051276;29;20250;-82
2022/09/05 21:01:57;;;;;;;4.72;2.70;;;;;;;24.72;34.39;100529.97;10043433;29;20230;-81
2022/09/05 21:07:34;;;;;;;3.33;2.70;;;;;;;24.16;36.22;100543.63;10042894;29;20878;-82
2022/09/05 21:12:56;;;;;;;7.70;2.45;;;;;;;24.66;34.66;100550.56;10042906;29;20283;-81
2022/09/05 21:18:21;;;;;;;5.80;2.80;;;;;;;24.38;35.01;100556.59;10039972;29;20199;-82
2022/09/05 21:23:43;;;;;;;4.82;2.50;;;;;;;24.84;33.86;100543.81;10040987;29;20272;-82
2022/09/05 21:29:15;;;;;;;4.20;2.50;;;;;;;24.64;34.46;100532.88;10041512;29;20226;-82
2022/09/05 21:34:51;;;;;;;3.53;2.63;;;;;;;24.61;34.18;100527.97;10035214;29;20550;-82
2022/09/05 21:40:14;;;;;;;7.60;2.70;;;;;;;24.23;35.63;100534.94;10051579;29;21154;-82
2022/09/05 21:45:38;;;;;;;6.05;2.53;;;;;;;24.19;34.71;100537.03;10022333;29;20289;-81
2022/09/05 21:51:07;;;;;;;4.60;2.40;;;;;;;23.32;37.06;100534.28;10038296;29;20226;-81
2022/09/05 21:56:32;;;;;;;4.15;2.67;;;;;;;23.19;36.26;100531.88;10036124;29;20310;-80
2022/09/05 22:01:55;;;;;;;4.85;2.20;;;;;;;23.40;36.22;100533.84;10042305;29;20230;-81
2022/09/05 22:07:18;;;;;;;5.88;2.45;;;;;;;24.22;34.73;100533.28;10034733;29;20365;-82
2022/09/05 22:12:40;;;;;;;6.55;2.45;;;;;;;23.86;34.97;100524.09;10040367;29;20199;-81
2022/09/05 22:18:02;;;;;;;3.40;1.92;;;;;;;23.62;35.16;100511.50;10053606;29;20620;-81
2022/09/05 22:23:24;;;;;;;4.05;2.47;;;;;;;23.71;35.06;100511.88;10054339;29;20206;-82
2022/09/05 22:28:49;;;;;;;4.13;2.53;;;;;;;24.09;34.32;100503.34;10056252;29;20194;-81
2022/09/05 22:34:12;;;;;;;6.57;2.65;;;;;;;23.84;34.41;100492.03;10040760;29;20241;-80
2022/09/05 22:39:35;;;;;;;4.18;2.50;;;;;;;23.54;35.14;100493.50;10040063;29;20222;-81
2022/09/05 22:44:57;;;;;;;3.17;2.05;;;;;;;23.77;35.10;100492.13;10053008;29;20225;-81
2022/09/05 22:50:19;;;;;;;3.65;2.90;;;;;;;24.22;34.04;100510.25;10055344;29;20230;-81
2022/09/05 22:55:42;;;;;;;5.20;3.92;;;;;;;23.52;34.86;100515.28;10042155;29;20249;-81
2022/09/05 23:01:04;;;;;;;3.97;2.95;;;;;;;23.81;34.40;100508.09;10047396;29;20544;-81
2022/09/05 23:06:27;;;;;;;7.35;3.28;;;;;;;23.43;36.10;100514.91;10047950;29;20223;-81
2022/09/05 23:11:49;;;;;;;4.80;2.83;;;;;;;23.43;35.89;100509.97;10047765;29;20218;-80
2022/09/05 23:17:12;;;;;;;4.72;3.20;;;;;;;23.39;35.88;100508.38;10046167;29;20632;-81
2022/09/05 23:22:35;;;;;;;4.13;3.05;;;;;;;23.52;35.48;100498.84;10038486;29;20342;-80
2022/09/05 23:27:57;;;;;;;4.28;2.55;;;;;;;23.73;35.05;100505.69;10055577;29;20226;-80
2022/09/05 23:33:19;;;;;;;4.93;2.55;;;;;;;22.45;37.21;100506.22;10062665;29;20206;-81
2022/09/05 23:38:42;;;;;;;5.53;2.78;;;;;;;23.09;36.34;100498.25;10045893;29;20624;-81
2022/09/05 23:44:04;;;;;;;2.67;2.30;;;;;;;23.25;35.23;100495.72;10029778;29;20206;-81
2022/09/05 23:49:26;;;;;;;4.15;2.58;;;;;;;23.25;35.92;100492.84;10047401;29;20202;-80
2022/09/05 23:54:48;;;;;;;3.25;2.55;;;;;;;22.90;36.82;100484.34;10046424;29;20294;-80
